Time;durP1;ratioP1;P1;durP2;ratioP2;P2;SDS_P1;SDS_P2;PMS_P1;PMS_P2;Temp;Humidity;BMP_temperature;BMP_pressure;BME280_temperature;BME280_humidity;BME280_pressure;Samples;Min_cycle;Max_cycle;Signal;HPM_P1;HPM_P2
2022/08/06 00:02:20;;;;;;;;;;;27.00;77.50;;;;;;5039540;28;19940;-58
2022/08/06 00:04:55;;;;;;;;;;;27.10;77.60;;;;;;5042587;28;19951;-59
2022/08/06 00:07:23;;;;;;;;;;;27.10;77.60;;;;;;5044994;28;19937;-55
2022/08/06 00:09:55;;;;;;;;;;;27.00;77.50;;;;;;5040479;28;20373;-57
2022/08/06 00:12:29;;;;;;;;;;;27.00;77.50;;;;;;5039621;28;19933;-61
2022/08/06 00:14:57;;;;;;;;;;;27.10;77.50;;;;;;5047025;28;19931;-57
2022/08/06 00:17:25;;;;;;;;;;;27.00;77.30;;;;;;5042861;28;19929;-56
2022/08/06 00:19:58;;;;;;;;;;;27.00;77.40;;;;;;5042990;28;20328;-61
2022/08/06 00:22:27;;;;;;;;;;;27.00;77.30;;;;;;5041426;28;20228;-57
2022/08/06 00:24:56;;;;;;;;;;;27.00;77.30;;;;;;5040385;28;19947;-55
2022/08/06 00:27:24;;;;;;;;;;;27.00;77.30;;;;;;5042348;28;19929;-60
2022/08/06 00:30:03;;;;;;;;;;;27.00;77.30;;;;;;5043538;28;19925;-62
2022/08/06 00:32:32;;;;;;;;;;;27.00;77.30;;;;;;5039610;28;20749;-61
2022/08/06 00:35:00;;;;;;;;;;;27.00;77.20;;;;;;5044632;28;19939;-60
2022/08/06 00:37:28;;;;;;;;;;;27.00;77.30;;;;;;5043358;28;19940;-54
2022/08/06 00:40:17;;;;;;;;;;;27.00;77.20;;;;;;5052804;28;19936;-55
2022/08/06 00:42:51;;;;;;;;;;;27.00;77.20;;;;;;5049544;28;20312;-59
2022/08/06 00:45:20;;;;;;;;;;;27.00;77.30;;;;;;5050038;28;19933;-61
2022/08/06 00:47:53;;;;;;;;;;;27.00;77.40;;;;;;5047321;28;19929;-61
2022/08/06 00:50:30;;;;;;;;;;;27.00;77.50;;;;;;5052825;28;20344;-52
2022/08/06 00:53:01;;;;;;;;;;;27.00;77.60;;;;;;5046287;28;19928;-61
2022/08/06 00:55:29;;;;;;;;;;;27.00;77.80;;;;;;5055454;28;19932;-56
2022/08/06 00:58:03;;;;;;;;;;;27.00;78.00;;;;;;5058628;28;19935;-58
2022/08/06 01:00:31;;;;;;;;;;;27.00;78.10;;;;;;5041496;28;19935;-60
2022/08/06 01:03:07;;;;;;;;;;;27.00;78.20;;;;;;5040008;28;19929;-58
2022/08/06 01:05:54;;;;;;;;;;;27.00;78.30;;;;;;5046495;28;19936;-56
2022/08/06 01:08:41;;;;;;;;;;;27.00;78.50;;;;;;5042854;28;19940;-58
2022/08/06 01:11:11;;;;;;;;;;;27.00;78.70;;;;;;5039923;28;19925;-56
2022/08/06 01:13:39;;;;;;;;;;;27.00;78.80;;;;;;5056877;28;19929;-58
2022/08/06 01:16:47;;;;;;;;;;;27.00;78.90;;;;;;5044147;28;19936;-57
2022/08/06 01:19:14;;;;;;;;;;;27.00;79.10;;;;;;5042793;28;19925;-57
2022/08/06 01:22:04;;;;;;;;;;;27.00;79.30;;;;;;5045415;28;19940;-59
2022/08/06 01:25:03;;;;;;;;;;;27.00;79.40;;;;;;5043029;28;19929;-58
2022/08/06 01:27:45;;;;;;;;;;;27.10;79.50;;;;;;5041288;28;19935;-58
2022/08/06 01:30:14;;;;;;;;;;;27.00;79.60;;;;;;5056212;28;19935;-58
2022/08/06 01:32:57;;;;;;;;;;;27.00;79.70;;;;;;5041246;28;19928;-56
2022/08/06 01:35:29;;;;;;;;;;;27.00;79.80;;;;;;5047963;28;19935;-56
2022/08/06 01:38:20;;;;;;;;;;;27.00;80.00;;;;;;5050402;28;19943;-57
2022/08/06 01:40:49;;;;;;;;;;;27.00;80.00;;;;;;5034358;28;19929;-54
2022/08/06 01:43:19;;;;;;;;;;;27.00;80.10;;;;;;5048622;28;19930;-63
2022/08/06 01:46:08;;;;;;;;;;;27.00;80.20;;;;;;5038296;28;19932;-56
2022/08/06 01:48:38;;;;;;;;;;;27.00;80.30;;;;;;5043393;28;19940;-57
2022/08/06 01:51:07;;;;;;;;;;;27.00;80.40;;;;;;5050333;28;19925;-57
2022/08/06 01:53:47;;;;;;;;;;;27.00;80.40;;;;;;5046840;28;19932;-52
2022/08/06 01:56:36;;;;;;;;;;;27.00;80.50;;;;;;4992203;28;1787361;-55
2022/08/06 01:59:26;;;;;;;;;;;27.00;80.70;;;;;;5045551;28;19951;-59
2022/08/06 02:01:56;;;;;;;;;;;27.00;80.70;;;;;;5049018;28;19928;-57
2022/08/06 02:04:27;;;;;;;;;;;27.00;80.80;;;;;;5044314;28;19961;-57
2022/08/06 02:06:57;;;;;;;;;;;27.00;80.80;;;;;;5040770;28;19925;-59
2022/08/06 02:09:25;;;;;;;;;;;27.00;80.90;;;;;;5047845;28;19935;-60
2022/08/06 02:12:26;;;;;;;;;;;27.00;80.90;;;;;;5044833;28;19925;-59
2022/08/06 02:14:55;;;;;;;;;;;27.00;81.00;;;;;;5044222;28;19929;-63
2022/08/06 02:17:28;;;;;;;;;;;27.00;81.10;;;;;;5046254;28;20418;-57
2022/08/06 02:20:17;;;;;;;;;;;27.00;81.10;;;;;;5046321;28;19929;-56
2022/08/06 02:23:06;;;;;;;;;;;27.00;81.20;;;;;;5043464;28;20324;-57
2022/08/06 02:25:36;;;;;;;;;;;27.00;81.20;;;;;;5053271;28;19925;-59
2022/08/06 02:28:04;;;;;;;;;;;27.00;81.30;;;;;;5057946;28;20411;-56
2022/08/06 02:30:36;;;;;;;;;;;27.00;81.30;;;;;;5043685;28;19929;-59
2022/08/06 02:33:09;;;;;;;;;;;27.00;81.40;;;;;;5044223;28;20345;-57
2022/08/06 02:35:44;;;;;;;;;;;26.90;81.40;;;;;;5052522;28;19925;-59
2022/08/06 02:38:23;;;;;;;;;;;27.00;81.50;;;;;;5055981;28;19933;-57
2022/08/06 02:41:07;;;;;;;;;;;26.90;81.50;;;;;;5046812;28;20435;-57
2022/08/06 02:43:38;;;;;;;;;;;26.90;81.60;;;;;;5052340;28;19932;-56
2022/08/06 02:46:21;;;;;;;;;;;26.90;81.60;;;;;;5042366;28;19928;-60
2022/08/06 02:48:50;;;;;;;;;;;26.90;81.70;;;;;;5041804;28;19936;-56
2022/08/06 02:51:21;;;;;;;;;;;26.90;81.70;;;;;;5054088;28;19932;-61
2022/08/06 02:54:19;;;;;;;;;;;26.90;81.80;;;;;;5042353;28;19929;-61
2022/08/06 02:56:54;;;;;;;;;;;26.90;81.90;;;;;;5059312;28;19924;-56
2022/08/06 02:59:25;;;;;;;;;;;26.90;82.00;;;;;;5042926;28;19929;-58
2022/08/06 03:02:06;;;;;;;;;;;26.90;82.00;;;;;;5052071;28;20179;-59
2022/08/06 03:04:40;;;;;;;;;;;26.90;82.10;;;;;;5041981;28;19929;-63
2022/08/06 03:07:22;;;;;;;;;;;26.90;82.10;;;;;;5043844;28;20427;-60
2022/08/06 03:09:56;;;;;;;;;;;26.90;82.20;;;;;;5048561;28;19936;-60
2022/08/06 03:12:24;;;;;;;;;;;26.90;82.30;;;;;;5052601;28;20604;-59
2022/08/06 03:14:58;;;;;;;;;;;26.90;82.30;;;;;;5038861;28;20416;-59
2022/08/06 03:17:38;;;;;;;;;;;26.90;82.40;;;;;;5046654;28;19943;-60
2022/08/06 03:20:06;;;;;;;;;;;26.90;82.40;;;;;;5051128;28;19932;-57
2022/08/06 03:22:46;;;;;;;;;;;26.90;82.50;;;;;;5057314;28;19928;-58
2022/08/06 03:25:14;;;;;;;;;;;26.90;82.60;;;;;;5052976;28;19925;-56
2022/08/06 03:27:43;;;;;;;;;;;26.90;82.60;;;;;;5059960;28;20316;-55
2022/08/06 03:30:12;;;;;;;;;;;26.90;82.60;;;;;;5048651;28;20293;-57
2022/08/06 03:33:02;;;;;;;;;;;26.90;82.70;;;;;;5048501;28;19929;-56
2022/08/06 03:35:49;;;;;;;;;;;26.90;82.70;;;;;;5045552;28;19959;-59
2022/08/06 03:38:21;;;;;;;;;;;26.90;82.80;;;;;;5056656;28;19932;-57
2022/08/06 03:40:54;;;;;;;;;;;26.90;82.80;;;;;;5056879;28;19925;-55
2022/08/06 03:43:21;;;;;;;;;;;26.90;83.10;;;;;;5052654;28;20297;-59
2022/08/06 03:45:58;;;;;;;;;;;26.90;82.90;;;;;;5048168;28;19929;-59
2022/08/06 03:48:28;;;;;;;;;;;26.90;82.90;;;;;;5041693;28;19928;-58
2022/08/06 03:51:05;;;;;;;;;;;26.90;83.00;;;;;;5043663;28;19929;-59
2022/08/06 03:53:37;;;;;;;;;;;26.90;83.00;;;;;;5040534;28;19929;-58
2022/08/06 03:56:13;;;;;;;;;;;26.90;83.00;;;;;;5049291;28;20400;-57
2022/08/06 03:58:42;;;;;;;;;;;26.90;83.20;;;;;;5051427;28;20408;-59
2022/08/06 04:01:12;;;;;;;;;;;26.90;83.10;;;;;;5037667;28;19929;-59
2022/08/06 04:03:39;;;;;;;;;;;26.90;83.10;;;;;;5055033;28;19935;-59
2022/08/06 04:06:10;;;;;;;;;;;26.90;83.20;;;;;;5046203;28;20108;-57
2022/08/06 04:08:46;;;;;;;;;;;26.90;83.10;;;;;;5050428;28;19936;-58
2022/08/06 04:11:14;;;;;;;;;;;26.90;83.30;;;;;;5043118;28;19935;-58
2022/08/06 04:14:01;;;;;;;;;;;26.90;83.30;;;;;;5045190;28;19936;-56
2022/08/06 04:16:34;;;;;;;;;;;26.90;83.30;;;;;;5042472;28;20319;-55
2022/08/06 04:19:04;;;;;;;;;;;26.90;83.30;;;;;;5041973;28;19928;-55
2022/08/06 04:21:35;;;;;;;;;;;26.90;83.40;;;;;;5047408;28;20292;-58
2022/08/06 04:24:22;;;;;;;;;;;26.90;83.40;;;;;;5054854;28;19952;-58
2022/08/06 04:26:59;;;;;;;;;;;26.90;83.60;;;;;;5056849;28;19933;-60
2022/08/06 04:29:32;;;;;;;;;;;26.90;83.50;;;;;;5059192;28;19951;-56
2022/08/06 04:32:20;;;;;;;;;;;26.90;83.60;;;;;;5045256;28;20316;-52
2022/08/06 04:35:03;;;;;;;;;;;26.90;83.60;;;;;;5041515;28;20309;-60
2022/08/06 04:37:51;;;;;;;;;;;26.80;83.60;;;;;;5052756;28;20040;-59
2022/08/06 04:40:20;;;;;;;;;;;26.80;83.70;;;;;;5046069;28;19925;-58
2022/08/06 04:43:20;;;;;;;;;;;26.80;83.70;;;;;;5048704;28;19929;-59
2022/08/06 04:45:48;;;;;;;;;;;26.80;83.70;;;;;;5037597;28;19929;-54
2022/08/06 04:48:35;;;;;;;;;;;26.80;83.70;;;;;;5051116;28;19931;-59
2022/08/06 04:51:06;;;;;;;;;;;26.80;83.80;;;;;;5044048;28;19928;-58
2022/08/06 04:53:43;;;;;;;;;;;26.80;83.80;;;;;;5048571;28;20399;-57
2022/08/06 04:56:23;;;;;;;;;;;26.80;83.80;;;;;;5044485;28;19929;-54
2022/08/06 04:59:03;;;;;;;;;;;26.80;83.90;;;;;;5041836;28;19936;-57
2022/08/06 05:01:33;;;;;;;;;;;26.90;84.20;;;;;;5041909;28;19929;-61
2022/08/06 05:04:20;;;;;;;;;;;26.90;84.10;;;;;;5042012;28;20399;-54
2022/08/06 05:06:53;;;;;;;;;;;26.90;84.00;;;;;;5042638;28;19933;-55
2022/08/06 05:09:25;;;;;;;;;;;26.90;84.90;;;;;;5058467;28;20320;-59
2022/08/06 05:12:29;;;;;;;;;;;26.90;85.20;;;;;;5052657;28;19940;-53
2022/08/06 05:15:01;;;;;;;;;;;26.90;85.50;;;;;;5038773;28;20411;-56
2022/08/06 05:17:33;;;;;;;;;;;27.00;85.80;;;;;;5040481;28;20351;-58
2022/08/06 05:20:04;;;;;;;;;;;27.00;86.00;;;;;;5045236;28;19928;-61
2022/08/06 05:22:40;;;;;;;;;;;27.00;86.30;;;;;;5044915;28;19936;-59
2022/08/06 05:25:21;;;;;;;;;;;26.90;85.60;;;;;;5042732;28;19925;-61
2022/08/06 05:27:54;;;;;;;;;;;26.90;85.30;;;;;;5043862;28;19936;-58
2022/08/06 05:30:41;;;;;;;;;;;26.30;73.00;;;;;;5050549;28;19928;-59
2022/08/06 05:33:11;;;;;;;;;;;25.80;72.10;;;;;;5039815;28;19929;-57
2022/08/06 05:35:43;;;;;;;;;;;25.80;71.00;;;;;;5041325;28;19929;-55
2022/08/06 05:38:29;;;;;;;;;;;25.70;71.30;;;;;;5044194;28;19940;-58
2022/08/06 05:40:58;;;;;;;;;;;25.70;71.40;;;;;;5053959;28;19933;-55
2022/08/06 05:43:26;;;;;;;;;;;25.70;71.20;;;;;;5057916;28;20303;-58
2022/08/06 05:46:15;;;;;;;;;;;25.70;70.50;;;;;;5037934;28;19936;-56
2022/08/06 05:49:03;;;;;;;;;;;25.70;70.20;;;;;;5036637;28;19929;-58
2022/08/06 05:52:01;;;;;;;;;;;25.30;70.20;;;;;;5041914;28;19932;-56
2022/08/06 05:54:34;;;;;;;;;;;24.80;70.60;;;;;;5039496;28;19932;-58
2022/08/06 05:57:12;;;;;;;;;;;24.60;71.00;;;;;;5042892;28;19928;-58
2022/08/06 05:59:46;;;;;;;;;;;24.50;71.30;;;;;;5046587;28;20391;-57
2022/08/06 06:02:26;;;;;;;;;;;24.40;71.50;;;;;;5050815;28;19929;-56
2022/08/06 06:04:54;;;;;;;;;;;24.50;71.30;;;;;;5046693;28;19928;-58
2022/08/06 06:07:41;;;;;;;;;;;24.50;71.50;;;;;;5046550;28;19995;-59
2022/08/06 06:10:28;;;;;;;;;;;24.60;71.60;;;;;;5055249;28;19937;-57
2022/08/06 06:13:00;;;;;;;;;;;24.30;71.20;;;;;;5040884;28;19924;-57
2022/08/06 06:15:29;;;;;;;;;;;24.30;72.30;;;;;;5045864;28;19933;-55
2022/08/06 06:18:36;;;;;;;;;;;24.20;72.10;;;;;;5056026;28;19937;-56
2022/08/06 06:21:10;;;;;;;;;;;24.20;72.50;;;;;;5047026;28;19929;-56
2022/08/06 06:24:03;;;;;;;;;;;24.20;72.60;;;;;;5042712;28;19924;-57
2022/08/06 06:26:30;;;;;;;;;;;24.20;72.20;;;;;;5048573;28;20355;-55
2022/08/06 06:29:16;;;;;;;;;;;24.20;72.20;;;;;;5045465;28;19951;-57
2022/08/06 06:32:13;;;;;;;;;;;24.20;72.30;;;;;;5058306;28;19935;-52
2022/08/06 06:34:57;;;;;;;;;;;24.10;72.30;;;;;;5047773;28;19928;-54
2022/08/06 06:37:34;;;;;;;;;;;24.10;72.50;;;;;;5051149;28;19929;-60
2022/08/06 06:40:22;;;;;;;;;;;24.00;72.50;;;;;;5050156;28;19929;-56
2022/08/06 06:43:01;;;;;;;;;;;24.20;72.80;;;;;;5043925;28;20483;-57
2022/08/06 06:45:48;;;;;;;;;;;24.00;72.20;;;;;;5045008;28;19929;-60
2022/08/06 06:48:44;;;;;;;;;;;24.00;72.90;;;;;;5034830;28;20576;-58
2022/08/06 06:51:20;;;;;;;;;;;24.20;73.00;;;;;;5039256;28;19928;-58
2022/08/06 06:54:11;;;;;;;;;;;24.40;73.10;;;;;;5052259;28;19952;-57
2022/08/06 06:56:59;;;;;;;;;;;24.60;72.90;;;;;;5046391;28;19940;-58
2022/08/06 06:59:33;;;;;;;;;;;24.80;73.00;;;;;;5041924;28;20415;-59
2022/08/06 07:02:22;;;;;;;;;;;24.90;72.90;;;;;;5050920;28;20304;-59
2022/08/06 07:04:54;;;;;;;;;;;25.10;72.80;;;;;;5028667;28;19933;-59
2022/08/06 07:07:26;;;;;;;;;;;25.20;73.00;;;;;;5035209;28;19937;-57
2022/08/06 07:09:54;;;;;;;;;;;25.30;72.90;;;;;;5041779;28;19929;-59
2022/08/06 07:12:28;;;;;;;;;;;25.40;73.20;;;;;;5041262;28;20408;-59
2022/08/06 07:15:00;;;;;;;;;;;25.40;73.40;;;;;;5037313;28;19940;-60
2022/08/06 07:17:29;;;;;;;;;;;25.50;73.50;;;;;;5051843;28;19932;-58
2022/08/06 07:20:19;;;;;;;;;;;25.50;73.80;;;;;;5045772;28;19932;-55
2022/08/06 07:22:53;;;;;;;;;;;25.60;76.40;;;;;;5048120;28;20905;-58
2022/08/06 07:25:42;;;;;;;;;;;25.60;77.20;;;;;;5054366;28;19952;-56
2022/08/06 07:28:25;;;;;;;;;;;25.60;79.10;;;;;;5046179;28;19929;-60
2022/08/06 07:30:58;;;;;;;;;;;25.70;80.00;;;;;;5042829;28;20439;-56
2022/08/06 07:33:31;;;;;;;;;;;25.70;80.70;;;;;;5047111;28;19928;-58
2022/08/06 07:36:20;;;;;;;;;;;25.70;81.20;;;;;;5047787;28;19933;-58
2022/08/06 07:38:54;;;;;;;;;;;25.70;81.90;;;;;;5050605;28;19929;-56
2022/08/06 07:41:22;;;;;;;;;;;25.80;82.40;;;;;;5041378;28;19933;-61
2022/08/06 07:44:11;;;;;;;;;;;25.80;82.60;;;;;;5058055;28;19932;-57
2022/08/06 07:46:41;;;;;;;;;;;25.80;82.60;;;;;;5034282;28;19933;-58
2022/08/06 07:49:20;;;;;;;;;;;25.80;82.20;;;;;;5049254;28;19926;-58
2022/08/06 07:51:57;;;;;;;;;;;25.70;80.80;;;;;;5037536;28;19936;-55
2022/08/06 07:54:29;;;;;;;;;;;25.70;79.90;;;;;;5045859;28;19929;-57
2022/08/06 07:57:01;;;;;;;;;;;25.70;79.20;;;;;;5042343;28;19936;-59
2022/08/06 07:59:29;;;;;;;;;;;25.80;80.00;;;;;;5061910;28;19929;-56
2022/08/06 08:01:58;;;;;;;;;;;25.90;81.20;;;;;;5041118;28;19932;-56
2022/08/06 08:07:20;;;;;;;;;;;26.00;87.10;;;;;;5040147;28;19933;-53
2022/08/06 08:09:47;;;;;;;;;;;26.10;87.30;;;;;;5038762;28;19929;-57
2022/08/06 08:12:30;;;;;;;;;;;26.00;86.90;;;;;;5037211;28;20403;-66
2022/08/06 08:15:05;;;;;;;;;;;26.00;85.90;;;;;;5038808;28;19924;-63
2022/08/06 08:17:49;;;;;;;;;;;26.00;85.50;;;;;;5047048;28;19949;-61
2022/08/06 08:20:26;;;;;;;;;;;26.00;84.90;;;;;;5047078;28;21337;-61
2022/08/06 08:23:02;;;;;;;;;;;25.90;83.70;;;;;;5027103;28;19933;-58
2022/08/06 08:25:31;;;;;;;;;;;25.90;82.00;;;;;;5028674;28;20471;-57
2022/08/06 08:28:10;;;;;;;;;;;25.90;81.30;;;;;;5036718;28;19936;-63
2022/08/06 08:30:42;;;;;;;;;;;26.00;80.60;;;;;;5045495;28;20312;-61
2022/08/06 08:33:10;;;;;;;;;;;26.00;79.70;;;;;;5044634;28;20007;-64
2022/08/06 08:35:41;;;;;;;;;;;26.00;79.70;;;;;;5043888;28;20284;-62
2022/08/06 08:38:16;;;;;;;;;;;26.00;79.60;;;;;;5043220;28;19929;-61
2022/08/06 08:40:44;;;;;;;;;;;26.00;78.80;;;;;;5042701;28;19925;-60
2022/08/06 08:43:16;;;;;;;;;;;26.10;78.10;;;;;;5046939;28;19929;-59
2022/08/06 08:45:49;;;;;;;;;;;26.10;77.70;;;;;;5045666;28;19929;-54
2022/08/06 08:48:19;;;;;;;;;;;26.20;78.20;;;;;;5043673;28;19929;-56
2022/08/06 08:50:49;;;;;;;;;;;26.20;77.80;;;;;;5049407;28;19928;-57
2022/08/06 08:53:28;;;;;;;;;;;26.20;77.80;;;;;;5046237;28;19925;-53
2022/08/06 08:56:12;;;;;;;;;;;26.20;77.30;;;;;;5042161;28;19928;-53
2022/08/06 08:59:00;;;;;;;;;;;26.10;76.80;;;;;;5044138;28;19955;-58
2022/08/06 09:01:48;;;;;;;;;;;26.10;76.60;;;;;;5042815;28;19936;-61
2022/08/06 09:04:23;;;;;;;;;;;26.20;77.20;;;;;;5049275;28;19929;-58
2022/08/06 09:06:55;;;;;;;;;;;26.20;77.80;;;;;;5049182;28;21724;-58
2022/08/06 09:09:23;;;;;;;;;;;26.20;77.40;;;;;;5043264;28;20312;-55
2022/08/06 09:11:58;;;;;;;;;;;26.30;77.50;;;;;;5040298;28;19943;-54
2022/08/06 09:14:35;;;;;;;;;;;26.30;76.60;;;;;;5035119;28;19929;-56
2022/08/06 09:17:04;;;;;;;;;;;26.30;76.40;;;;;;5050793;28;19925;-57
2022/08/06 09:19:36;;;;;;;;;;;26.30;76.20;;;;;;5043504;28;19933;-56
2022/08/06 09:22:08;;;;;;;;;;;26.20;76.10;;;;;;5043796;28;19928;-59
2022/08/06 09:24:36;;;;;;;;;;;26.20;76.00;;;;;;5044707;28;19925;-63
2022/08/06 09:27:05;;;;;;;;;;;26.30;76.30;;;;;;5044023;28;20577;-57
2022/08/06 09:29:57;;;;;;;;;;;26.30;76.10;;;;;;5041408;28;19948;-55
2022/08/06 09:32:45;;;;;;;;;;;26.30;76.00;;;;;;5037473;28;19929;-56
2022/08/06 09:35:29;;;;;;;;;;;26.30;76.00;;;;;;5049926;28;19944;-61
2022/08/06 09:38:12;;;;;;;;;;;26.30;75.90;;;;;;5038261;28;20370;-59
2022/08/06 09:41:02;;;;;;;;;;;26.30;75.90;;;;;;5047279;28;19947;-57
2022/08/06 09:43:33;;;;;;;;;;;26.30;76.00;;;;;;5040292;28;19929;-61
2022/08/06 09:46:35;;;;;;;;;;;26.30;76.20;;;;;;5040787;28;19925;-62
2022/08/06 09:49:02;;;;;;;;;;;26.30;76.40;;;;;;5041040;28;20312;-59
2022/08/06 09:51:49;;;;;;;;;;;26.30;76.50;;;;;;5049885;28;20402;-60
2022/08/06 09:54:20;;;;;;;;;;;26.30;76.60;;;;;;5044900;28;20552;-59
2022/08/06 09:56:58;;;;;;;;;;;26.30;76.70;;;;;;5042997;28;19933;-61
2022/08/06 09:59:25;;;;;;;;;;;26.30;76.80;;;;;;5045889;28;20257;-60
2022/08/06 10:01:58;;;;;;;;;;;26.30;77.00;;;;;;5043650;28;19935;-60
2022/08/06 10:04:26;;;;;;;;;;;26.30;77.70;;;;;;5049921;28;20466;-61
2022/08/06 10:07:03;;;;;;;;;;;26.30;77.20;;;;;;5044570;28;19932;-63
2022/08/06 10:09:36;;;;;;;;;;;26.30;77.30;;;;;;5039265;28;20352;-61
2022/08/06 10:12:18;;;;;;;;;;;26.40;77.50;;;;;;5038742;28;19929;-60
2022/08/06 10:14:45;;;;;;;;;;;26.40;77.60;;;;;;5044118;28;19956;-62
2022/08/06 10:17:15;;;;;;;;;;;26.30;77.60;;;;;;5050713;28;19929;-59
2022/08/06 10:19:44;;;;;;;;;;;26.40;77.70;;;;;;5043036;28;19936;-60
2022/08/06 10:22:19;;;;;;;;;;;26.40;77.80;;;;;;5053624;28;20143;-56
2022/08/06 10:24:53;;;;;;;;;;;26.40;77.90;;;;;;5040206;28;20028;-54
2022/08/06 10:27:27;;;;;;;;;;;26.30;78.00;;;;;;5044789;28;19929;-61
2022/08/06 10:30:07;;;;;;;;;;;26.40;78.10;;;;;;5047373;28;19929;-61
2022/08/06 10:32:41;;;;;;;;;;;26.40;78.20;;;;;;5036371;28;20316;-59
2022/08/06 10:35:11;;;;;;;;;;;26.40;78.20;;;;;;5067117;28;19936;-55
2022/08/06 10:37:42;;;;;;;;;;;26.40;78.30;;;;;;5039291;28;20588;-57
2022/08/06 10:40:18;;;;;;;;;;;26.40;78.30;;;;;;5040654;28;19933;-53
2022/08/06 10:43:03;;;;;;;;;;;26.40;78.40;;;;;;5041062;28;20281;-55
2022/08/06 10:45:33;;;;;;;;;;;26.50;78.50;;;;;;5043704;28;19931;-56
2022/08/06 10:48:16;;;;;;;;;;;26.40;78.50;;;;;;5051160;28;20005;-57
2022/08/06 10:51:04;;;;;;;;;;;26.40;78.60;;;;;;5045196;28;19933;-58
2022/08/06 10:53:33;;;;;;;;;;;26.40;78.70;;;;;;5049941;28;20020;-58
2022/08/06 10:56:20;;;;;;;;;;;26.40;78.80;;;;;;5053230;28;19929;-60
2022/08/06 10:58:55;;;;;;;;;;;26.40;78.80;;;;;;5049627;28;19929;-58
2022/08/06 11:01:38;;;;;;;;;;;26.40;78.80;;;;;;5041869;28;19929;-58
2022/08/06 11:04:19;;;;;;;;;;;26.40;78.80;;;;;;5045955;28;19977;-62
2022/08/06 11:07:04;;;;;;;;;;;26.40;78.90;;;;;;5043977;28;19945;-53
2022/08/06 11:09:50;;;;;;;;;;;26.40;78.90;;;;;;5055537;28;19939;-54
2022/08/06 11:12:49;;;;;;;;;;;26.40;78.90;;;;;;5048984;28;19928;-58
2022/08/06 11:15:20;;;;;;;;;;;26.40;78.90;;;;;;5044635;28;19925;-59
2022/08/06 11:17:50;;;;;;;;;;;26.40;79.00;;;;;;5046663;28;19929;-60
2022/08/06 11:20:32;;;;;;;;;;;26.40;79.10;;;;;;5043791;28;19925;-59
2022/08/06 11:23:02;;;;;;;;;;;26.40;79.00;;;;;;5054545;28;20281;-59
2022/08/06 11:25:37;;;;;;;;;;;26.40;79.00;;;;;;5051869;28;19932;-57
2022/08/06 11:28:07;;;;;;;;;;;26.40;79.10;;;;;;5039911;28;19932;-56
2022/08/06 11:30:38;;;;;;;;;;;26.50;79.20;;;;;;5042013;28;19939;-54
2022/08/06 11:33:05;;;;;;;;;;;26.50;79.20;;;;;;5042278;28;19924;-59
2022/08/06 11:35:33;;;;;;;;;;;26.50;79.20;;;;;;5031064;28;19929;-58
2022/08/06 11:38:10;;;;;;;;;;;26.50;79.20;;;;;;5052690;28;19955;-52
2022/08/06 11:40:54;;;;;;;;;;;26.50;79.30;;;;;;5039524;28;20326;-61
2022/08/06 11:43:41;;;;;;;;;;;26.40;79.20;;;;;;5048236;28;19929;-60
2022/08/06 11:46:30;;;;;;;;;;;26.50;79.30;;;;;;5053318;28;19928;-59
2022/08/06 11:49:03;;;;;;;;;;;26.50;79.40;;;;;;5044439;28;20339;-57
2022/08/06 11:51:41;;;;;;;;;;;26.50;79.40;;;;;;5038077;28;20223;-62
2022/08/06 11:54:13;;;;;;;;;;;26.50;79.40;;;;;;5053651;28;19939;-60
2022/08/06 11:56:58;;;;;;;;;;;26.50;79.40;;;;;;5047265;28;19928;-58
2022/08/06 11:59:49;;;;;;;;;;;26.50;79.40;;;;;;5052239;28;19929;-61
2022/08/06 12:02:37;;;;;;;;;;;26.50;79.40;;;;;;5040812;28;19936;-58
2022/08/06 12:05:07;;;;;;;;;;;26.50;79.50;;;;;;5055355;28;20147;-59
2022/08/06 12:07:36;;;;;;;;;;;26.50;79.50;;;;;;5049046;28;19944;-59
2022/08/06 12:10:17;;;;;;;;;;;26.50;79.50;;;;;;5050555;28;19924;-58
2022/08/06 12:12:55;;;;;;;;;;;26.50;79.50;;;;;;5043741;28;19952;-60
2022/08/06 12:15:26;;;;;;;;;;;26.50;79.60;;;;;;5045494;28;19940;-59
2022/08/06 12:18:13;;;;;;;;;;;26.50;79.50;;;;;;5046509;28;19933;-57
2022/08/06 12:20:49;;;;;;;;;;;26.50;79.50;;;;;;5043128;28;19925;-57
2022/08/06 12:23:22;;;;;;;;;;;26.60;79.60;;;;;;5045852;28;19936;-54
2022/08/06 12:26:10;;;;;;;;;;;26.60;79.60;;;;;;5052007;28;20047;-56
2022/08/06 12:28:37;;;;;;;;;;;26.60;79.50;;;;;;5053369;28;19943;-58
2022/08/06 12:31:04;;;;;;;;;;;26.60;79.50;;;;;;5043924;28;20563;-59
2022/08/06 12:33:51;;;;;;;;;;;26.60;79.50;;;;;;5039024;28;19929;-55
2022/08/06 12:36:19;;;;;;;;;;;26.60;79.50;;;;;;5054204;28;20219;-57
2022/08/06 12:39:02;;;;;;;;;;;26.60;79.50;;;;;;5051444;28;20181;-59
2022/08/06 12:41:37;;;;;;;;;;;26.60;79.50;;;;;;5039539;28;19928;-60
2022/08/06 12:44:13;;;;;;;;;;;26.60;79.50;;;;;;5043891;28;19933;-57
2022/08/06 12:47:13;;;;;;;;;;;26.60;79.50;;;;;;5041049;28;19928;-56
2022/08/06 12:49:40;;;;;;;;;;;26.60;79.40;;;;;;5040356;28;19936;-56
2022/08/06 12:52:16;;;;;;;;;;;26.60;79.40;;;;;;5044530;28;19952;-61
2022/08/06 12:54:43;;;;;;;;;;;26.60;79.40;;;;;;5045515;28;19936;-58
2022/08/06 12:57:21;;;;;;;;;;;26.60;79.50;;;;;;5043591;28;19925;-58
2022/08/06 13:00:08;;;;;;;;;;;26.70;79.60;;;;;;5052336;28;19935;-58
2022/08/06 13:02:41;;;;;;;;;;;26.70;79.50;;;;;;5056356;28;20299;-59
2022/08/06 13:05:12;;;;;;;;;;;26.70;79.50;;;;;;5039226;28;20304;-59
2022/08/06 13:07:41;;;;;;;;;;;26.70;79.40;;;;;;5038510;28;20332;-61
2022/08/06 13:10:12;;;;;;;;;;;26.70;79.40;;;;;;5043241;28;19925;-59
2022/08/06 13:13:00;;;;;;;;;;;26.70;79.30;;;;;;5051637;28;19928;-58
2022/08/06 13:16:01;;;;;;;;;;;26.80;79.30;;;;;;5032571;28;19952;-59
2022/08/06 13:18:28;;;;;;;;;;;26.80;79.30;;;;;;5051798;28;19929;-59
2022/08/06 13:21:18;;;;;;;;;;;26.80;79.20;;;;;;5041044;28;19929;-55
2022/08/06 13:23:47;;;;;;;;;;;26.90;79.30;;;;;;5043214;28;19929;-54
2022/08/06 13:26:25;;;;;;;;;;;26.90;79.10;;;;;;5045324;28;20252;-57
2022/08/06 13:29:11;;;;;;;;;;;26.90;79.00;;;;;;5036912;28;19933;-55
2022/08/06 13:31:59;;;;;;;;;;;26.90;78.90;;;;;;5041671;28;19929;-57
2022/08/06 13:34:27;;;;;;;;;;;27.00;78.90;;;;;;5042466;28;19931;-57
2022/08/06 13:36:58;;;;;;;;;;;27.00;78.80;;;;;;5042930;28;19929;-56
2022/08/06 13:39:30;;;;;;;;;;;27.10;78.80;;;;;;5044335;28;19924;-55
2022/08/06 13:42:05;;;;;;;;;;;27.10;78.70;;;;;;5045605;28;19952;-55
2022/08/06 13:44:42;;;;;;;;;;;27.10;78.60;;;;;;5041954;28;20346;-58
2022/08/06 13:47:13;;;;;;;;;;;27.20;78.60;;;;;;5038186;28;20404;-56
2022/08/06 13:50:00;;;;;;;;;;;27.20;78.50;;;;;;5055219;28;19928;-57
2022/08/06 13:52:29;;;;;;;;;;;27.30;78.50;;;;;;5044773;28;19929;-60
2022/08/06 13:54:57;;;;;;;;;;;27.30;78.40;;;;;;5045520;28;20281;-57
2022/08/06 13:57:24;;;;;;;;;;;27.30;78.40;;;;;;5039085;28;20289;-58
2022/08/06 13:59:52;;;;;;;;;;;27.40;78.40;;;;;;5041750;28;19928;-58
2022/08/06 14:02:21;;;;;;;;;;;27.40;78.30;;;;;;5047468;28;19929;-61
2022/08/06 14:04:49;;;;;;;;;;;27.40;78.20;;;;;;5051572;28;19936;-61
2022/08/06 14:07:17;;;;;;;;;;;27.50;78.10;;;;;;5039337;28;20307;-59
2022/08/06 14:09:44;;;;;;;;;;;27.50;78.00;;;;;;5042781;28;20324;-58
2022/08/06 14:12:31;;;;;;;;;;;27.50;77.90;;;;;;5047748;28;19928;-59
2022/08/06 14:14:58;;;;;;;;;;;27.60;77.80;;;;;;5045374;28;19928;-56
2022/08/06 14:17:26;;;;;;;;;;;27.60;77.70;;;;;;5046296;28;19929;-55
2022/08/06 14:20:00;;;;;;;;;;;27.70;77.70;;;;;;5036129;28;19929;-56
2022/08/06 14:22:44;;;;;;;;;;;27.70;77.60;;;;;;5039567;28;19942;-58
2022/08/06 14:25:14;;;;;;;;;;;27.80;77.60;;;;;;5052773;28;20328;-57
2022/08/06 14:27:41;;;;;;;;;;;27.80;77.40;;;;;;5052004;28;19952;-56
2022/08/06 14:30:12;;;;;;;;;;;27.90;77.40;;;;;;5041702;28;20005;-57
2022/08/06 14:33:00;;;;;;;;;;;27.90;77.40;;;;;;5046559;28;19928;-54
2022/08/06 14:35:37;;;;;;;;;;;27.90;77.20;;;;;;5044022;28;19929;-57
2022/08/06 14:38:12;;;;;;;;;;;28.00;77.30;;;;;;5045303;28;19924;-54
2022/08/06 14:46:21;;;;;;;;;;;28.10;77.10;;;;;;5052320;28;19935;-58
2022/08/06 14:48:56;;;;;;;;;;;28.10;77.10;;;;;;5045486;28;19936;-58
2022/08/06 14:51:25;;;;;;;;;;;28.10;77.00;;;;;;5048858;28;20466;-55
2022/08/06 14:54:13;;;;;;;;;;;28.10;77.00;;;;;;5045690;28;19936;-55
2022/08/06 14:56:41;;;;;;;;;;;28.20;77.00;;;;;;5036371;28;19936;-60
2022/08/06 14:59:19;;;;;;;;;;;28.20;76.90;;;;;;5046715;28;19932;-58
2022/08/06 15:01:46;;;;;;;;;;;28.30;77.00;;;;;;5049300;28;20404;-60
2022/08/06 15:04:16;;;;;;;;;;;28.30;76.90;;;;;;5048707;28;19936;-58
2022/08/06 15:06:52;;;;;;;;;;;28.30;76.90;;;;;;5045536;28;19932;-59
2022/08/06 15:09:26;;;;;;;;;;;28.40;77.00;;;;;;5055135;28;19932;-55
2022/08/06 15:12:14;;;;;;;;;;;28.40;76.80;;;;;;5051772;28;19928;-56
2022/08/06 15:15:02;;;;;;;;;;;28.40;76.80;;;;;;5046994;28;19936;-59
2022/08/06 15:17:32;;;;;;;;;;;28.50;76.80;;;;;;5041783;28;19929;-61
2022/08/06 15:20:19;;;;;;;;;;;28.50;76.70;;;;;;5046715;28;20375;-53